createdAt,value
2022-12-11T00:00:26.135Z,1058.88
2022-12-11T00:02:53.012Z,1053.03
2022-12-11T00:05:19.777Z,1053.47
2022-12-11T00:07:46.627Z,1055.10
2022-12-11T00:10:13.456Z,1054.30
2022-12-11T00:12:40.154Z,1056.25
2022-12-11T00:15:07.762Z,1055.60
2022-12-11T00:17:34.842Z,1057.00
2022-12-11T00:20:02.199Z,1059.78
2022-12-11T00:22:30.895Z,1062.00
2022-12-11T00:24:57.649Z,1058.50
2022-12-11T00:27:24.552Z,1057.65
2022-12-11T00:29:51.250Z,1054.28
2022-12-11T00:32:17.972Z,1057.00
2022-12-11T00:34:45.775Z,1055.45
2022-12-11T00:37:12.575Z,1064.07
2022-12-11T00:39:39.844Z,1052.55
2022-12-11T00:42:07.809Z,1056.93
2022-12-11T00:44:35.199Z,1057.35
2022-12-11T00:47:02.041Z,1060.38
2022-12-11T00:49:28.995Z,1059.07
2022-12-11T00:51:55.675Z,1056.47
2022-12-11T00:54:22.853Z,1062.27
2022-12-11T00:56:50.683Z,1064.07
2022-12-11T00:59:17.343Z,1062.50
2022-12-11T01:01:44.215Z,1063.95
2022-12-11T01:04:10.945Z,1065.40
2022-12-11T01:06:38.923Z,1068.85
2022-12-11T01:09:24.502Z,1064.40
2022-12-11T01:11:52.043Z,1066.82
2022-12-11T01:14:19.808Z,1057.72
2022-12-11T01:16:46.736Z,1062.47
2022-12-11T01:19:13.639Z,1064.65
2022-12-11T01:21:41.067Z,1060.53
2022-12-11T01:24:07.841Z,1064.15
2022-12-11T01:26:34.591Z,1070.32
2022-12-11T01:29:01.366Z,1075.82
2022-12-11T01:31:28.147Z,1067.25
2022-12-11T01:33:55.699Z,1066.00
2022-12-11T01:36:23.098Z,1064.47
2022-12-11T01:38:50.521Z,1069.55
2022-12-11T01:41:18.837Z,1063.82
2022-12-11T01:44:06.441Z,1065.30
2022-12-11T01:46:35.383Z,1062.18
2022-12-11T01:49:07.220Z,1066.07
2022-12-11T01:51:40.361Z,1056.83
2022-12-11T01:54:11.338Z,1054.83
2022-12-11T01:56:41.749Z,1052.55
2022-12-11T01:59:09.992Z,1055.45
2022-12-11T02:01:52.882Z,1055.40
2022-12-11T02:04:20.915Z,1054.50
2022-12-11T02:06:50.269Z,1056.80
2022-12-11T02:09:21.714Z,1057.47
2022-12-11T02:12:07.986Z,1058.15
2022-12-11T02:14:59.708Z,1059.35
2022-12-11T02:17:35.462Z,1059.50
2022-12-11T02:20:16.058Z,1056.40
2022-12-11T02:23:07.328Z,1055.50
2022-12-11T02:26:18.418Z,1054.73
2022-12-11T02:28:58.245Z,1052.40
2022-12-11T02:31:32.321Z,1051.43
2022-12-11T02:34:04.541Z,1055.72
2022-12-11T02:36:37.580Z,1049.68
2022-12-11T02:39:05.626Z,1053.25
2022-12-11T02:41:33.633Z,1049.40
2022-12-11T02:44:03.326Z,1043.47
2022-12-11T02:46:32.994Z,1043.20
2022-12-11T02:49:00.687Z,1045.28
2022-12-11T02:51:33.908Z,1045.00
2022-12-11T02:54:03.532Z,1045.00
2022-12-11T02:56:39.222Z,1046.95
2022-12-11T02:59:15.538Z,1043.85
2022-12-11T03:01:43.195Z,1041.07
2022-12-11T03:04:10.076Z,1044.30
2022-12-11T03:06:42.641Z,1044.80
2022-12-11T03:09:09.712Z,1045.37
2022-12-11T03:11:36.462Z,1045.03
2022-12-11T03:14:05.274Z,1045.55
2022-12-11T03:17:04.347Z,1051.18
2022-12-11T03:19:42.931Z,1051.93
2022-12-11T03:22:16.416Z,1051.50
2022-12-11T03:24:51.658Z,1055.03
2022-12-11T03:27:34.468Z,1052.80
2022-12-11T03:30:06.865Z,1050.93
2022-12-11T03:33:00.638Z,1055.13
2022-12-11T03:35:35.366Z,1050.60
2022-12-11T03:38:11.423Z,1051.50
2022-12-11T03:40:42.007Z,1052.33
2022-12-11T03:43:10.810Z,1053.70
2022-12-11T03:45:38.957Z,1053.50
2022-12-11T03:48:07.174Z,1055.38
2022-12-11T03:50:35.186Z,1054.05
2022-12-11T03:53:03.299Z,1055.70
2022-12-11T03:55:32.660Z,1052.93
2022-12-11T03:57:59.456Z,1055.47
2022-12-11T04:00:26.526Z,1054.55
2022-12-11T04:03:13.967Z,1052.72
2022-12-11T04:05:52.195Z,1051.85
2022-12-11T04:08:21.123Z,1049.68
2022-12-11T04:10:48.421Z,1051.40
2022-12-11T04:13:15.239Z,1052.20
2022-12-11T04:15:42.086Z,1055.38
2022-12-11T04:18:28.615Z,1060.55
2022-12-11T04:21:14.704Z,1058.25
2022-12-11T04:24:00.294Z,1062.43
2022-12-11T04:26:27.285Z,1057.05
2022-12-11T04:28:54.130Z,1058.50
2022-12-11T04:31:22.749Z,1055.40
2022-12-11T04:33:49.669Z,1055.82
2022-12-11T04:36:16.682Z,1044.03
2022-12-11T04:38:43.502Z,1048.80
2022-12-11T04:41:13.555Z,1046.60
2022-12-11T04:43:40.635Z,1046.72
2022-12-11T04:46:09.653Z,1047.15
2022-12-11T04:48:37.401Z,1047.22
2022-12-11T04:51:04.929Z,1047.90
2022-12-11T04:53:31.745Z,1050.57
2022-12-11T04:55:58.614Z,1050.80
2022-12-11T04:58:26.087Z,1045.82
2022-12-11T05:00:53.324Z,1045.63
2022-12-11T05:03:20.524Z,1044.82
2022-12-11T05:05:51.774Z,1048.15
2022-12-11T05:08:21.625Z,1050.00
2022-12-11T05:11:03.132Z,1045.65
2022-12-11T05:13:30.466Z,1051.10
2022-12-11T05:15:57.602Z,1045.93
2022-12-11T05:18:24.795Z,1043.10
2022-12-11T05:20:58.718Z,1047.30
2022-12-11T05:23:26.352Z,1044.57
2022-12-11T05:26:01.885Z,1039.95
2022-12-11T05:28:30.492Z,1034.03
2022-12-11T05:30:59.617Z,1041.30
2022-12-11T05:33:26.618Z,1042.40
2022-12-11T05:35:54.467Z,1043.20
2022-12-11T05:38:22.589Z,1043.20
2022-12-11T05:41:00.762Z,1043.97
2022-12-11T05:43:30.266Z,1044.45
2022-12-11T05:46:06.289Z,1042.27
2022-12-11T05:48:33.027Z,1042.30
2022-12-11T05:51:01.084Z,1039.97
2022-12-11T05:53:28.309Z,1046.35
2022-12-11T05:55:55.381Z,1049.50
2022-12-11T05:58:22.167Z,1038.97
2022-12-11T06:00:48.914Z,1041.10
2022-12-11T06:03:15.885Z,1041.82
2022-12-11T06:05:43.013Z,1041.05
2022-12-11T06:08:10.071Z,1040.28
2022-12-11T06:10:37.249Z,1042.20
2022-12-11T06:13:04.145Z,1037.60
2022-12-11T06:15:30.797Z,1041.50
2022-12-11T06:17:57.594Z,1035.20
2022-12-11T06:20:24.325Z,1039.88
2022-12-11T06:22:51.150Z,1042.05
2022-12-11T06:25:18.073Z,1036.88
2022-12-11T06:27:44.845Z,1040.07
2022-12-11T06:30:12.163Z,1040.22
2022-12-11T06:32:38.964Z,1038.05
2022-12-11T06:35:06.233Z,1041.60
2022-12-11T06:37:34.215Z,1038.95
2022-12-11T06:40:01.042Z,1039.18
2022-12-11T06:42:30.784Z,1040.78
2022-12-11T06:44:59.641Z,1043.53
2022-12-11T06:47:27.894Z,1040.80
2022-12-11T06:49:54.744Z,1045.30
2022-12-11T06:52:26.825Z,1048.73
2022-12-11T06:54:53.810Z,1050.30
2022-12-11T06:57:20.916Z,1052.90
2022-12-11T06:59:47.611Z,1041.05
2022-12-11T07:02:16.550Z,1056.78
2022-12-11T07:04:43.663Z,1050.47
2022-12-11T07:07:10.553Z,1038.72
2022-12-11T07:09:39.794Z,1038.75
2022-12-11T07:12:07.193Z,1039.53
2022-12-11T07:14:34.029Z,1034.45
2022-12-11T07:17:00.875Z,1035.23
2022-12-11T07:19:27.760Z,1033.82
2022-12-11T07:21:54.438Z,1037.68
2022-12-11T07:24:21.161Z,1036.50
2022-12-11T07:26:47.950Z,1039.68
2022-12-11T07:29:14.695Z,1038.97
2022-12-11T07:31:43.296Z,1041.88
2022-12-11T07:34:12.730Z,1037.78
2022-12-11T07:36:39.755Z,1040.63
2022-12-11T07:39:07.478Z,1044.50
2022-12-11T07:41:34.761Z,1041.70
2022-12-11T07:44:01.582Z,1038.47
2022-12-11T07:46:30.594Z,1038.90
2022-12-11T07:49:00.770Z,1038.03
2022-12-11T07:51:30.422Z,1035.45
2022-12-11T07:54:03.042Z,1036.78
2022-12-11T07:56:30.824Z,1037.75
2022-12-11T07:59:03.510Z,1040.20
2022-12-11T08:01:32.164Z,1036.00
2022-12-11T08:03:59.077Z,1027.17
2022-12-11T08:06:31.669Z,1025.97
2022-12-11T08:08:59.858Z,1026.38
2022-12-11T08:11:27.532Z,1022.33
2022-12-11T08:13:55.103Z,1020.22
2022-12-11T08:16:22.516Z,1026.03
2022-12-11T08:18:49.350Z,1022.47
2022-12-11T08:21:21.751Z,1019.20
2022-12-11T08:23:49.839Z,1020.60
2022-12-11T08:26:19.684Z,1016.60
2022-12-11T08:28:46.853Z,1020.22
2022-12-11T08:31:15.707Z,1019.90
2022-12-11T08:33:43.042Z,1016.80
2022-12-11T08:36:13.334Z,1017.75
2022-12-11T08:38:40.663Z,1020.95
2022-12-11T08:41:12.202Z,1022.55
2022-12-11T08:43:39.587Z,1017.45
2022-12-11T08:46:07.216Z,1017.60
2022-12-11T08:48:35.051Z,1022.20
2022-12-11T08:51:03.132Z,1022.88
2022-12-11T08:53:30.861Z,1018.15
2022-12-11T08:56:05.542Z,1019.43
2022-12-11T08:58:32.873Z,1021.38
2022-12-11T09:00:59.897Z,1020.50
2022-12-11T09:03:27.098Z,1017.30
2022-12-11T09:05:53.952Z,1019.83
2022-12-11T09:08:20.867Z,1020.95
2022-12-11T09:10:47.786Z,1019.88
2022-12-11T09:13:14.707Z,1020.53
2022-12-11T09:15:41.741Z,1017.50
2022-12-11T09:18:09.745Z,1026.13
2022-12-11T09:20:36.612Z,1027.50
2022-12-11T09:23:03.544Z,1025.07
2022-12-11T09:25:30.298Z,1025.05
2022-12-11T09:27:57.049Z,1026.23
2022-12-11T09:30:23.887Z,1025.85
2022-12-11T09:32:51.657Z,1021.97
2022-12-11T09:35:18.310Z,1026.43
2022-12-11T09:37:45.147Z,1027.15
2022-12-11T09:40:13.640Z,1029.53
2022-12-11T09:42:52.818Z,1025.85
2022-12-11T09:45:20.184Z,1025.63
2022-12-11T09:47:51.630Z,1028.73
2022-12-11T09:50:25.691Z,1028.43
2022-12-11T09:53:28.642Z,1026.53
2022-12-11T09:56:13.398Z,1024.50
2022-12-11T09:59:01.498Z,1025.88
2022-12-11T10:01:37.142Z,1021.63
2022-12-11T10:04:27.439Z,1024.40
2022-12-11T10:07:15.109Z,1019.80
2022-12-11T10:09:51.464Z,1018.22
2022-12-11T10:12:40.281Z,1018.85
2022-12-11T10:15:25.970Z,1014.10
2022-12-11T10:18:01.299Z,1013.33
2022-12-11T10:20:36.447Z,1015.07
2022-12-11T10:23:07.540Z,1013.35
2022-12-11T10:25:39.849Z,1016.35
2022-12-11T10:28:14.971Z,1013.90
2022-12-11T10:31:03.205Z,1052.27
2022-12-11T10:33:45.568Z,1044.00
2022-12-11T10:36:18.601Z,1027.60
2022-12-11T10:38:47.418Z,1028.53
2022-12-11T10:41:20.885Z,1026.40
2022-12-11T10:43:52.939Z,1023.22
2022-12-11T10:46:19.596Z,1024.53
2022-12-11T10:48:50.655Z,1023.28
2022-12-11T10:51:17.769Z,1018.25
2022-12-11T10:54:01.365Z,1021.13
2022-12-11T10:56:33.428Z,1015.93
2022-12-11T10:59:01.279Z,1017.65
2022-12-11T11:01:30.916Z,1019.80
2022-12-11T11:04:18.147Z,1020.10
2022-12-11T11:06:44.974Z,1016.83
2022-12-11T11:09:36.195Z,1022.33
2022-12-11T11:12:07.923Z,1020.42
2022-12-11T11:14:35.052Z,1021.08
2022-12-11T11:17:02.855Z,1016.08
2022-12-11T11:19:36.905Z,1016.08
2022-12-11T11:22:12.957Z,1016.30
2022-12-11T11:24:56.045Z,1015.40
2022-12-11T11:27:42.045Z,1016.13
2022-12-11T11:30:24.511Z,1019.20
2022-12-11T11:33:12.214Z,1016.80
2022-12-11T11:35:45.531Z,1016.30
2022-12-11T11:38:19.260Z,1015.57
2022-12-11T11:40:53.110Z,1014.85
2022-12-11T11:43:59.006Z,1016.15
2022-12-11T11:46:28.426Z,1015.55
2022-12-11T11:49:10.310Z,1019.38
2022-12-11T11:51:47.664Z,1017.97
2022-12-11T11:54:46.826Z,1022.85
2022-12-11T11:57:24.695Z,1017.45
2022-12-11T11:59:55.946Z,1015.13
2022-12-11T12:02:22.792Z,1019.83
2022-12-11T12:04:51.254Z,1018.80
2022-12-11T12:07:40.606Z,1017.45
2022-12-11T12:10:31.437Z,1013.80
2022-12-11T12:13:48.654Z,1016.90
2022-12-11T12:16:52.703Z,1019.35
2022-12-11T12:19:31.695Z,1013.17
2022-12-11T12:22:08.186Z,1015.53
2022-12-11T12:25:00.294Z,1011.95
2022-12-11T12:27:53.908Z,1011.03
2022-12-11T12:30:23.441Z,1013.30
2022-12-11T12:33:26.378Z,1006.53
2022-12-11T12:36:10.091Z,1009.92
2022-12-11T12:39:05.654Z,1016.70
2022-12-11T12:42:10.718Z,1009.58
2022-12-11T12:44:59.459Z,1008.47
2022-12-11T12:47:32.304Z,1006.38
2022-12-11T12:50:02.487Z,1008.40
2022-12-11T12:52:36.201Z,1009.67
2022-12-11T12:55:25.220Z,1006.70
2022-12-11T12:57:57.786Z,1004.63
2022-12-11T13:00:40.539Z,1010.95
2022-12-11T13:03:37.010Z,1007.42
2022-12-11T13:06:07.710Z,1007.13
2022-12-11T13:08:41.125Z,1010.55
2022-12-11T13:11:12.002Z,1011.78
2022-12-11T13:13:48.971Z,1014.22
2022-12-11T13:16:18.395Z,1013.60
2022-12-11T13:18:47.504Z,1011.42
2022-12-11T13:21:30.835Z,1011.17
2022-12-11T13:24:12.956Z,1016.33
2022-12-11T13:26:40.151Z,1012.47
2022-12-11T13:29:27.470Z,1016.37
2022-12-11T13:32:11.293Z,1013.30
2022-12-11T13:34:41.041Z,1016.63
2022-12-11T13:37:32.963Z,1010.97
2022-12-11T13:40:03.372Z,1013.10
2022-12-11T13:42:37.066Z,1014.25
2022-12-11T13:45:05.381Z,1012.38
2022-12-11T13:47:32.913Z,1012.25
2022-12-11T13:50:18.762Z,1015.63
2022-12-11T13:52:55.311Z,1017.88
2022-12-11T13:55:34.084Z,1016.70
2022-12-11T13:58:01.404Z,1021.10
2022-12-11T14:00:32.546Z,1013.75
2022-12-11T14:03:02.954Z,1017.42
2022-12-11T14:05:29.859Z,1016.03
2022-12-11T14:08:02.228Z,1016.30
2022-12-11T14:10:32.360Z,1014.67
2022-12-11T14:13:29.749Z,1020.45
2022-12-11T14:15:56.729Z,1017.90
2022-12-11T14:18:27.313Z,1015.67
2022-12-11T14:21:01.990Z,1012.47
2022-12-11T14:23:31.694Z,1014.05
2022-12-11T14:26:04.344Z,1014.25
2022-12-11T14:28:38.119Z,1010.13
2022-12-11T14:31:06.395Z,1009.40
2022-12-11T14:33:38.397Z,1008.58
2022-12-11T14:36:06.473Z,1011.83
2022-12-11T14:38:37.213Z,1008.55
2022-12-11T14:41:11.510Z,1017.80
2022-12-11T14:43:45.503Z,1008.45
2022-12-11T14:46:18.717Z,999.85
2022-12-11T14:49:00.628Z,1002.45
2022-12-11T14:51:34.130Z,1006.92
2022-12-11T14:54:04.071Z,1012.33
2022-12-11T14:56:31.790Z,1011.45
2022-12-11T14:59:06.409Z,1004.88
2022-12-11T15:01:35.839Z,1011.28
2022-12-11T15:04:14.622Z,1009.20
2022-12-11T15:06:49.545Z,1007.65
2022-12-11T15:09:37.240Z,1004.42
2022-12-11T15:12:16.434Z,1008.50
2022-12-11T15:14:50.904Z,1005.67
2022-12-11T15:17:19.088Z,1000.65
2022-12-11T15:19:51.741Z,1004.95
2022-12-11T15:22:21.282Z,1010.83
2022-12-11T15:24:52.697Z,1008.93
2022-12-11T15:27:32.962Z,1006.60
2022-12-11T15:29:59.779Z,1002.72
2022-12-11T15:32:26.577Z,1004.70
2022-12-11T15:35:00.320Z,1004.90
2022-12-11T15:37:31.679Z,1023.28
2022-12-11T15:40:01.338Z,1006.72
2022-12-11T15:42:35.446Z,1005.92
2022-12-11T15:45:05.260Z,996.15
2022-12-11T15:47:32.666Z,997.88
2022-12-11T15:50:02.750Z,998.42
2022-12-11T15:52:29.610Z,994.30
2022-12-11T15:54:56.249Z,998.30
2022-12-11T15:57:24.527Z,991.78
2022-12-11T15:59:53.971Z,995.83
2022-12-11T16:02:20.823Z,1005.70
2022-12-11T16:04:47.578Z,1008.78
2022-12-11T16:07:20.990Z,1007.20
2022-12-11T16:09:49.392Z,1012.55
2022-12-11T16:12:16.197Z,1009.97
2022-12-11T16:14:44.539Z,1000.92
2022-12-11T16:17:14.626Z,1002.90
2022-12-11T16:19:43.043Z,1002.08
2022-12-11T16:22:10.912Z,999.25
2022-12-11T16:24:38.264Z,1004.15
2022-12-11T16:27:06.359Z,998.90
2022-12-11T16:29:37.625Z,996.20
2022-12-11T16:32:06.906Z,998.72
2022-12-11T16:34:33.925Z,997.83
2022-12-11T16:37:01.179Z,996.17
2022-12-11T16:39:28.193Z,990.05
2022-12-11T16:41:54.950Z,990.58
2022-12-11T16:44:23.572Z,996.50
2022-12-11T16:46:50.715Z,1000.03
2022-12-11T16:49:17.923Z,999.80
2022-12-11T16:51:44.709Z,1005.37
2022-12-11T16:54:12.047Z,1008.90
2022-12-11T16:56:39.223Z,1003.80
2022-12-11T16:59:06.322Z,1003.70
2022-12-11T17:01:33.656Z,1007.55
2022-12-11T17:04:00.910Z,1005.95
2022-12-11T17:06:27.867Z,1003.92
2022-12-11T17:08:54.749Z,1003.65
2022-12-11T17:11:23.059Z,999.47
2022-12-11T17:13:57.836Z,995.38
2022-12-11T17:16:26.452Z,1002.53
2022-12-11T17:18:53.664Z,1000.22
2022-12-11T17:21:22.151Z,999.22
2022-12-11T17:23:50.387Z,1000.28
2022-12-11T17:26:17.306Z,999.63
2022-12-11T17:28:44.872Z,1001.05
2022-12-11T17:31:17.694Z,999.22
2022-12-11T17:33:45.506Z,1002.80
2022-12-11T17:36:18.169Z,1001.13
2022-12-11T17:38:45.500Z,993.75
2022-12-11T17:41:20.023Z,999.93
2022-12-11T17:43:48.209Z,1007.88
2022-12-11T17:46:15.016Z,1015.40
2022-12-11T17:48:42.971Z,1010.05
2022-12-11T17:51:12.998Z,1011.40
2022-12-11T17:53:40.371Z,1017.78
2022-12-11T17:56:08.538Z,1010.17
2022-12-11T17:58:35.221Z,1008.67
2022-12-11T18:01:07.829Z,1020.70
2022-12-11T18:03:35.210Z,1020.20
2022-12-11T18:06:14.726Z,1028.28
2022-12-11T18:08:42.055Z,1025.93
2022-12-11T18:11:13.289Z,1024.55
2022-12-11T18:13:40.302Z,1018.92
2022-12-11T18:16:11.322Z,1018.85
2022-12-11T18:18:39.194Z,1017.28
2022-12-11T18:21:06.644Z,1014.88
2022-12-11T18:23:33.505Z,1022.38
2022-12-11T18:26:00.476Z,1020.00
2022-12-11T18:28:27.435Z,1018.42
2022-12-11T18:30:54.297Z,1018.10
2022-12-11T18:33:21.898Z,1021.10
2022-12-11T18:35:50.267Z,1017.05
2022-12-11T18:38:17.034Z,1021.72
2022-12-11T18:40:43.744Z,1013.33
2022-12-11T18:43:10.661Z,1006.70
2022-12-11T18:45:41.952Z,1015.13
2022-12-11T18:48:09.593Z,1019.78
2022-12-11T18:50:36.863Z,1025.03
2022-12-11T18:53:04.209Z,1028.22
2022-12-11T18:55:31.089Z,1028.53
2022-12-11T18:57:58.138Z,1029.63
2022-12-11T19:00:26.516Z,1030.47
2022-12-11T19:02:54.463Z,1027.70
2022-12-11T19:05:21.297Z,1021.47
2022-12-11T19:07:48.108Z,1023.83
2022-12-11T19:10:14.968Z,1017.53
2022-12-11T19:12:42.856Z,1018.65
2022-12-11T19:15:10.865Z,1020.42
2022-12-11T19:17:38.909Z,1018.83
2022-12-11T19:20:32.306Z,1018.83
2022-12-11T19:22:54.296Z,1007.88
2022-12-11T19:25:21.130Z,1006.92
2022-12-11T19:27:50.029Z,1013.28
2022-12-11T19:30:16.871Z,1018.78
2022-12-11T19:32:47.225Z,1021.70
2022-12-11T19:35:15.005Z,1021.10
2022-12-11T19:37:42.305Z,1024.80
2022-12-11T19:40:10.223Z,1021.92
2022-12-11T19:42:36.928Z,1013.97
2022-12-11T19:45:04.130Z,1012.80
2022-12-11T19:47:30.837Z,1027.25
2022-12-11T19:49:57.788Z,1016.60
2022-12-11T19:52:25.660Z,1031.78
2022-12-11T19:54:53.496Z,57.10
2022-12-11T19:57:20.161Z,73.72
2022-12-11T19:59:48.612Z,8.85
2022-12-11T20:02:19.589Z,8.47
2022-12-11T20:04:47.246Z,9.95
2022-12-11T20:07:13.954Z,9.00
2022-12-11T20:09:40.740Z,9.73
2022-12-11T20:12:10.232Z,8.68
2022-12-11T20:14:38.350Z,8.80
2022-12-11T20:17:12.375Z,10.23
2022-12-11T20:19:40.508Z,9.68
2022-12-11T20:22:09.337Z,9.02
2022-12-11T20:24:36.128Z,9.95
2022-12-11T20:27:02.998Z,10.05
2022-12-11T20:29:29.721Z,9.65
2022-12-11T20:31:57.555Z,10.23
2022-12-11T20:34:24.431Z,23.77
2022-12-11T20:36:52.526Z,21.40
2022-12-11T20:39:19.546Z,9.32
2022-12-11T20:41:46.262Z,10.00
2022-12-11T20:44:12.998Z,11.10
2022-12-11T20:46:40.784Z,9.23
2022-12-11T20:49:12.625Z,12.60
2022-12-11T20:51:40.202Z,9.33
2022-12-11T20:54:08.871Z,10.02
2022-12-11T20:56:37.528Z,10.23
2022-12-11T20:59:04.457Z,9.25
2022-12-11T21:01:32.597Z,9.00
2022-12-11T21:04:02.964Z,9.47
2022-12-11T21:06:33.367Z,8.50
2022-12-11T21:09:01.866Z,9.20
2022-12-11T21:11:29.223Z,10.38
2022-12-11T21:13:56.116Z,10.10
2022-12-11T21:16:23.750Z,8.48
2022-12-11T21:18:50.555Z,8.83
2022-12-11T21:21:17.901Z,8.93
2022-12-11T21:23:44.951Z,10.60
2022-12-11T21:26:12.086Z,9.23
2022-12-11T21:28:38.801Z,9.73
2022-12-11T21:31:08.958Z,8.98
2022-12-11T21:33:37.130Z,10.48
2022-12-11T21:36:05.819Z,8.38
2022-12-11T21:38:33.813Z,9.90
2022-12-11T21:41:22.360Z,8.30
2022-12-11T21:46:40.572Z,9.60
2022-12-11T21:49:08.405Z,12.50
2022-12-11T21:51:41.380Z,9.88
2022-12-11T21:54:14.179Z,10.55
2022-12-11T21:56:41.255Z,8.55
2022-12-11T21:59:08.317Z,8.50
2022-12-11T22:01:38.787Z,7.87
2022-12-11T22:04:05.997Z,8.27
2022-12-11T22:06:33.220Z,7.97
2022-12-11T22:09:00.294Z,9.85
2022-12-11T22:11:29.725Z,8.27
2022-12-11T22:13:56.749Z,9.40
2022-12-11T22:16:23.777Z,10.13
2022-12-11T22:18:50.745Z,9.02
2022-12-11T22:21:17.811Z,8.02
2022-12-11T22:23:44.834Z,11.90
2022-12-11T22:26:16.458Z,8.68
2022-12-11T22:28:43.308Z,9.83
2022-12-11T22:31:12.128Z,7.90
2022-12-11T22:33:39.156Z,12.02
2022-12-11T22:36:06.551Z,6.55
2022-12-11T22:38:34.541Z,9.45
2022-12-11T22:41:09.072Z,7.10
2022-12-11T22:43:36.873Z,7.25
2022-12-11T22:46:03.789Z,7.57
2022-12-11T22:48:30.957Z,8.35
2022-12-11T22:50:57.894Z,10.32
2022-12-11T22:53:25.817Z,8.38
2022-12-11T22:55:53.353Z,8.02
2022-12-11T22:58:21.866Z,7.90
2022-12-11T23:00:49.297Z,6.90
2022-12-11T23:03:17.087Z,7.55
2022-12-11T23:05:43.801Z,10.27
2022-12-11T23:08:10.647Z,8.20
2022-12-11T23:10:40.831Z,15.10
2022-12-11T23:13:08.321Z,10.77
2022-12-11T23:15:34.989Z,57.35
2022-12-11T23:18:01.947Z,6.32
2022-12-11T23:20:29.024Z,6.47
2022-12-11T23:22:55.834Z,6.87
2022-12-11T23:25:22.664Z,6.93
2022-12-11T23:27:49.658Z,7.15
2022-12-11T23:30:16.406Z,7.47
2022-12-11T23:32:43.131Z,6.30
2022-12-11T23:35:10.372Z,7.30
2022-12-11T23:37:37.428Z,15.23
2022-12-11T23:40:05.330Z,6.00
2022-12-11T23:42:33.876Z,8.00
2022-12-11T23:45:00.698Z,6.53
2022-12-11T23:47:27.819Z,7.40
2022-12-11T23:49:54.586Z,7.57
2022-12-11T23:52:22.557Z,7.37
2022-12-11T23:54:51.364Z,6.30
2022-12-11T23:57:18.174Z,6.83
2022-12-11T23:59:45.872Z,6.60
